sensor_id;sensor_type;location;lat;lon;timestamp;temperature;humidity
24444;DHT22;13346;50.984;5.822;2023-02-26T00:01:13;-0.90;99.90
24444;DHT22;13346;50.984;5.822;2023-02-26T00:03:40;-0.70;99.90
24444;DHT22;13346;50.984;5.822;2023-02-26T00:06:08;-0.80;99.90
24444;DHT22;13346;50.984;5.822;2023-02-26T00:08:35;-0.80;99.90
24444;DHT22;13346;50.984;5.822;2023-02-26T00:11:05;-0.80;99.90
24444;DHT22;13346;50.984;5.822;2023-02-26T00:13:34;-0.80;99.90
24444;DHT22;13346;50.984;5.822;2023-02-26T00:16:02;-0.90;99.90
24444;DHT22;13346;50.984;5.822;2023-02-26T00:18:31;-0.90;99.90
24444;DHT22;13346;50.984;5.822;2023-02-26T00:20:59;-0.90;99.90
24444;DHT22;13346;50.984;5.822;2023-02-26T00:23:26;-1.00;99.90
24444;DHT22;13346;50.984;5.822;2023-02-26T00:25:53;-0.70;99.90
24444;DHT22;13346;50.984;5.822;2023-02-26T00:28:21;-0.80;99.90
24444;DHT22;13346;50.984;5.822;2023-02-26T00:30:49;-0.70;99.90
24444;DHT22;13346;50.984;5.822;2023-02-26T00:33:17;-0.70;99.90
24444;DHT22;13346;50.984;5.822;2023-02-26T00:35:46;-0.70;99.90
24444;DHT22;13346;50.984;5.822;2023-02-26T00:38:16;-0.70;99.90
24444;DHT22;13346;50.984;5.822;2023-02-26T00:40:45;-0.70;99.90
24444;DHT22;13346;50.984;5.822;2023-02-26T00:43:17;-0.70;99.90
24444;DHT22;13346;50.984;5.822;2023-02-26T00:45:50;-0.80;99.90
24444;DHT22;13346;50.984;5.822;2023-02-26T00:48:34;-0.90;99.90
24444;DHT22;13346;50.984;5.822;2023-02-26T00:51:12;-0.90;99.90
24444;DHT22;13346;50.984;5.822;2023-02-26T00:53:47;-1.10;99.90
24444;DHT22;13346;50.984;5.822;2023-02-26T00:56:15;-1.30;99.90
24444;DHT22;13346;50.984;5.822;2023-02-26T00:58:43;-1.20;99.90
24444;DHT22;13346;50.984;5.822;2023-02-26T01:01:11;-1.20;99.90
24444;DHT22;13346;50.984;5.822;2023-02-26T01:03:38;-1.30;99.90
24444;DHT22;13346;50.984;5.822;2023-02-26T01:06:11;-1.30;99.90
24444;DHT22;13346;50.984;5.822;2023-02-26T01:08:43;-1.50;99.90
24444;DHT22;13346;50.984;5.822;2023-02-26T01:11:14;-1.50;99.90
24444;DHT22;13346;50.984;5.822;2023-02-26T01:13:42;-1.60;99.90
24444;DHT22;13346;50.984;5.822;2023-02-26T01:16:19;-1.60;99.90
24444;DHT22;13346;50.984;5.822;2023-02-26T01:18:51;-1.70;99.90
24444;DHT22;13346;50.984;5.822;2023-02-26T01:21:24;-1.70;99.90
24444;DHT22;13346;50.984;5.822;2023-02-26T01:23:52;-1.80;99.90
24444;DHT22;13346;50.984;5.822;2023-02-26T01:26:22;-1.70;99.90
24444;DHT22;13346;50.984;5.822;2023-02-26T01:28:50;-1.70;99.90
24444;DHT22;13346;50.984;5.822;2023-02-26T01:31:30;-1.50;99.90
24444;DHT22;13346;50.984;5.822;2023-02-26T01:34:02;-1.40;99.90
24444;DHT22;13346;50.984;5.822;2023-02-26T01:36:33;-1.20;99.90
24444;DHT22;13346;50.984;5.822;2023-02-26T01:39:06;-1.20;99.90
24444;DHT22;13346;50.984;5.822;2023-02-26T01:41:38;-1.20;99.90
24444;DHT22;13346;50.984;5.822;2023-02-26T01:44:13;-1.20;99.90
24444;DHT22;13346;50.984;5.822;2023-02-26T01:46:59;-1.10;99.90
24444;DHT22;13346;50.984;5.822;2023-02-26T01:49:28;-1.10;99.90
24444;DHT22;13346;50.984;5.822;2023-02-26T01:51:58;-1.10;99.90
24444;DHT22;13346;50.984;5.822;2023-02-26T01:54:29;-1.10;99.90
24444;DHT22;13346;50.984;5.822;2023-02-26T01:57:01;-1.10;99.90
24444;DHT22;13346;50.984;5.822;2023-02-26T01:59:30;-1.10;99.90
24444;DHT22;13346;50.984;5.822;2023-02-26T02:01:59;-1.00;99.90
24444;DHT22;13346;50.984;5.822;2023-02-26T02:04:29;-1.00;99.90
24444;DHT22;13346;50.984;5.822;2023-02-26T02:06:59;-0.90;99.90
24444;DHT22;13346;50.984;5.822;2023-02-26T02:09:26;-0.80;99.90
24444;DHT22;13346;50.984;5.822;2023-02-26T02:12:07;-0.80;99.90
24444;DHT22;13346;50.984;5.822;2023-02-26T02:14:43;-0.70;99.90
24444;DHT22;13346;50.984;5.822;2023-02-26T02:17:16;-0.60;99.90
24444;DHT22;13346;50.984;5.822;2023-02-26T02:20:06;-0.60;99.90
24444;DHT22;13346;50.984;5.822;2023-02-26T02:22:53;-0.50;99.90
24444;DHT22;13346;50.984;5.822;2023-02-26T02:28:36;-0.40;99.90
24444;DHT22;13346;50.984;5.822;2023-02-26T02:31:10;-0.40;99.90
24444;DHT22;13346;50.984;5.822;2023-02-26T02:33:42;-0.30;99.90
24444;DHT22;13346;50.984;5.822;2023-02-26T02:36:14;-0.30;99.90
24444;DHT22;13346;50.984;5.822;2023-02-26T02:38:46;-0.30;99.90
24444;DHT22;13346;50.984;5.822;2023-02-26T02:41:18;-0.30;99.90
24444;DHT22;13346;50.984;5.822;2023-02-26T02:43:46;-0.30;99.90
24444;DHT22;13346;50.984;5.822;2023-02-26T02:46:20;-0.30;99.90
24444;DHT22;13346;50.984;5.822;2023-02-26T02:48:58;-0.30;99.90
24444;DHT22;13346;50.984;5.822;2023-02-26T02:51:29;-0.30;99.90
24444;DHT22;13346;50.984;5.822;2023-02-26T02:54:02;-0.40;99.90
24444;DHT22;13346;50.984;5.822;2023-02-26T02:56:34;-0.50;99.90
24444;DHT22;13346;50.984;5.822;2023-02-26T02:59:10;-0.70;99.90
24444;DHT22;13346;50.984;5.822;2023-02-26T03:01:41;-0.70;99.90
24444;DHT22;13346;50.984;5.822;2023-02-26T03:04:12;-0.70;99.90
24444;DHT22;13346;50.984;5.822;2023-02-26T03:06:40;-0.80;99.90
24444;DHT22;13346;50.984;5.822;2023-02-26T03:09:09;-0.80;99.90
24444;DHT22;13346;50.984;5.822;2023-02-26T03:11:37;-0.70;99.90
24444;DHT22;13346;50.984;5.822;2023-02-26T03:14:05;-0.70;99.90
24444;DHT22;13346;50.984;5.822;2023-02-26T03:16:51;-0.80;99.90
24444;DHT22;13346;50.984;5.822;2023-02-26T03:19:28;-0.80;99.90
24444;DHT22;13346;50.984;5.822;2023-02-26T03:22:02;-0.80;99.90
24444;DHT22;13346;50.984;5.822;2023-02-26T03:24:35;-0.70;99.90
24444;DHT22;13346;50.984;5.822;2023-02-26T03:27:08;-0.80;99.90
24444;DHT22;13346;50.984;5.822;2023-02-26T03:29:44;-0.80;99.90
24444;DHT22;13346;50.984;5.822;2023-02-26T03:32:19;-0.80;99.90
24444;DHT22;13346;50.984;5.822;2023-02-26T03:34:51;-0.80;99.90
24444;DHT22;13346;50.984;5.822;2023-02-26T03:37:22;-0.80;99.90
24444;DHT22;13346;50.984;5.822;2023-02-26T03:39:53;-0.90;99.90
24444;DHT22;13346;50.984;5.822;2023-02-26T03:42:26;-0.90;99.90
24444;DHT22;13346;50.984;5.822;2023-02-26T03:44:57;-0.80;99.90
24444;DHT22;13346;50.984;5.822;2023-02-26T03:47:28;-0.70;99.90
24444;DHT22;13346;50.984;5.822;2023-02-26T03:50:00;-0.70;99.90
24444;DHT22;13346;50.984;5.822;2023-02-26T03:52:30;-0.70;99.90
24444;DHT22;13346;50.984;5.822;2023-02-26T03:55:04;-0.90;99.90
24444;DHT22;13346;50.984;5.822;2023-02-26T03:57:32;-0.90;99.90
24444;DHT22;13346;50.984;5.822;2023-02-26T03:59:59;-1.10;99.90
24444;DHT22;13346;50.984;5.822;2023-02-26T04:02:32;-1.00;99.90
24444;DHT22;13346;50.984;5.822;2023-02-26T04:05:04;-1.10;99.90
24444;DHT22;13346;50.984;5.822;2023-02-26T04:07:32;-1.20;99.90
24444;DHT22;13346;50.984;5.822;2023-02-26T04:10:00;-1.20;99.90
24444;DHT22;13346;50.984;5.822;2023-02-26T04:12:27;-1.20;99.90
24444;DHT22;13346;50.984;5.822;2023-02-26T04:14:54;-1.10;99.90
24444;DHT22;13346;50.984;5.822;2023-02-26T04:17:22;-1.30;99.90
24444;DHT22;13346;50.984;5.822;2023-02-26T04:19:51;-1.30;99.90
24444;DHT22;13346;50.984;5.822;2023-02-26T04:22:18;-1.30;99.90
24444;DHT22;13346;50.984;5.822;2023-02-26T04:24:45;-1.20;99.90
24444;DHT22;13346;50.984;5.822;2023-02-26T04:27:12;-1.10;99.90
24444;DHT22;13346;50.984;5.822;2023-02-26T04:29:39;-1.10;99.90
24444;DHT22;13346;50.984;5.822;2023-02-26T04:32:06;-1.20;99.90
24444;DHT22;13346;50.984;5.822;2023-02-26T04:34:34;-1.20;99.90
24444;DHT22;13346;50.984;5.822;2023-02-26T04:37:02;-1.10;99.90
24444;DHT22;13346;50.984;5.822;2023-02-26T04:39:29;-1.20;99.90
24444;DHT22;13346;50.984;5.822;2023-02-26T04:41:56;-1.20;99.90
24444;DHT22;13346;50.984;5.822;2023-02-26T04:44:24;-1.20;99.90
24444;DHT22;13346;50.984;5.822;2023-02-26T04:46:51;-1.30;99.90
24444;DHT22;13346;50.984;5.822;2023-02-26T04:49:18;-1.50;99.90
24444;DHT22;13346;50.984;5.822;2023-02-26T04:51:45;-1.40;99.90
24444;DHT22;13346;50.984;5.822;2023-02-26T04:54:14;-1.30;99.90
24444;DHT22;13346;50.984;5.822;2023-02-26T04:56:41;-1.40;99.90
24444;DHT22;13346;50.984;5.822;2023-02-26T04:59:08;-1.40;99.90
24444;DHT22;13346;50.984;5.822;2023-02-26T05:01:35;-1.40;99.90
24444;DHT22;13346;50.984;5.822;2023-02-26T05:04:02;-1.50;99.90
24444;DHT22;13346;50.984;5.822;2023-02-26T05:06:30;-1.40;99.90
24444;DHT22;13346;50.984;5.822;2023-02-26T05:08:57;-1.30;99.90
24444;DHT22;13346;50.984;5.822;2023-02-26T05:11:25;-1.40;99.90
24444;DHT22;13346;50.984;5.822;2023-02-26T05:13:52;-1.40;99.90
24444;DHT22;13346;50.984;5.822;2023-02-26T05:16:20;-1.50;99.90
24444;DHT22;13346;50.984;5.822;2023-02-26T05:18:47;-1.40;99.90
24444;DHT22;13346;50.984;5.822;2023-02-26T05:21:14;-1.50;99.90
24444;DHT22;13346;50.984;5.822;2023-02-26T05:23:41;-1.50;99.90
24444;DHT22;13346;50.984;5.822;2023-02-26T05:26:08;-1.50;99.90
24444;DHT22;13346;50.984;5.822;2023-02-26T05:28:37;-1.70;99.90
24444;DHT22;13346;50.984;5.822;2023-02-26T05:31:04;-1.40;99.90
24444;DHT22;13346;50.984;5.822;2023-02-26T05:33:32;-1.50;99.90
24444;DHT22;13346;50.984;5.822;2023-02-26T05:35:59;-1.40;99.90
24444;DHT22;13346;50.984;5.822;2023-02-26T05:38:26;-1.50;99.90
24444;DHT22;13346;50.984;5.822;2023-02-26T05:40:55;-1.40;99.90
24444;DHT22;13346;50.984;5.822;2023-02-26T05:43:23;-1.50;99.90
24444;DHT22;13346;50.984;5.822;2023-02-26T05:45:53;-1.40;99.90
24444;DHT22;13346;50.984;5.822;2023-02-26T05:48:20;-1.60;99.90
24444;DHT22;13346;50.984;5.822;2023-02-26T05:50:48;-1.50;99.90
24444;DHT22;13346;50.984;5.822;2023-02-26T05:53:16;-1.50;99.90
24444;DHT22;13346;50.984;5.822;2023-02-26T05:55:43;-1.40;99.90
24444;DHT22;13346;50.984;5.822;2023-02-26T05:58:10;-1.60;99.90
24444;DHT22;13346;50.984;5.822;2023-02-26T06:00:37;-1.40;99.90
24444;DHT22;13346;50.984;5.822;2023-02-26T06:03:06;-1.40;99.90
24444;DHT22;13346;50.984;5.822;2023-02-26T06:05:33;-1.40;99.90
24444;DHT22;13346;50.984;5.822;2023-02-26T06:08:01;-1.50;99.90
24444;DHT22;13346;50.984;5.822;2023-02-26T06:10:28;-1.60;99.90
24444;DHT22;13346;50.984;5.822;2023-02-26T06:12:55;-1.50;99.90
24444;DHT22;13346;50.984;5.822;2023-02-26T06:15:22;-1.60;99.90
24444;DHT22;13346;50.984;5.822;2023-02-26T06:17:49;-1.50;99.90
24444;DHT22;13346;50.984;5.822;2023-02-26T06:20:18;-1.60;99.90
24444;DHT22;13346;50.984;5.822;2023-02-26T06:22:45;-1.60;99.90
24444;DHT22;13346;50.984;5.822;2023-02-26T06:25:12;-1.50;99.90
24444;DHT22;13346;50.984;5.822;2023-02-26T06:27:40;-1.50;99.90
24444;DHT22;13346;50.984;5.822;2023-02-26T06:30:08;-1.40;99.90
24444;DHT22;13346;50.984;5.822;2023-02-26T06:32:35;-1.40;99.90
24444;DHT22;13346;50.984;5.822;2023-02-26T06:35:03;-1.50;99.90
24444;DHT22;13346;50.984;5.822;2023-02-26T06:37:32;-1.50;99.90
24444;DHT22;13346;50.984;5.822;2023-02-26T06:39:59;-1.60;99.90
24444;DHT22;13346;50.984;5.822;2023-02-26T06:42:26;-1.80;99.90
24444;DHT22;13346;50.984;5.822;2023-02-26T06:44:53;-1.70;99.90
24444;DHT22;13346;50.984;5.822;2023-02-26T06:47:21;-1.60;99.90
24444;DHT22;13346;50.984;5.822;2023-02-26T06:49:49;-1.60;99.90
24444;DHT22;13346;50.984;5.822;2023-02-26T06:52:16;-1.50;99.90
24444;DHT22;13346;50.984;5.822;2023-02-26T06:54:45;-1.70;99.90
24444;DHT22;13346;50.984;5.822;2023-02-26T06:57:12;-1.60;99.90
24444;DHT22;13346;50.984;5.822;2023-02-26T06:59:39;-1.60;99.90
24444;DHT22;13346;50.984;5.822;2023-02-26T07:02:08;-1.60;99.90
24444;DHT22;13346;50.984;5.822;2023-02-26T07:04:37;-1.70;99.90
24444;DHT22;13346;50.984;5.822;2023-02-26T07:07:04;-1.60;99.90
24444;DHT22;13346;50.984;5.822;2023-02-26T07:09:31;-1.50;99.90
24444;DHT22;13346;50.984;5.822;2023-02-26T07:12:00;-1.40;99.90
24444;DHT22;13346;50.984;5.822;2023-02-26T07:14:27;-1.40;99.90
24444;DHT22;13346;50.984;5.822;2023-02-26T07:16:54;-1.40;99.90
24444;DHT22;13346;50.984;5.822;2023-02-26T07:19:21;-1.30;99.90
24444;DHT22;13346;50.984;5.822;2023-02-26T07:21:49;-1.30;99.90
24444;DHT22;13346;50.984;5.822;2023-02-26T07:24:16;-1.30;99.90
24444;DHT22;13346;50.984;5.822;2023-02-26T07:26:43;-1.20;99.90
24444;DHT22;13346;50.984;5.822;2023-02-26T07:29:12;-1.20;99.90
24444;DHT22;13346;50.984;5.822;2023-02-26T07:31:39;-1.30;99.90
24444;DHT22;13346;50.984;5.822;2023-02-26T07:34:06;-1.20;99.90
24444;DHT22;13346;50.984;5.822;2023-02-26T07:36:34;-1.20;99.90
24444;DHT22;13346;50.984;5.822;2023-02-26T07:39:01;-1.10;99.90
24444;DHT22;13346;50.984;5.822;2023-02-26T07:41:28;-1.00;99.90
24444;DHT22;13346;50.984;5.822;2023-02-26T07:43:55;-0.90;99.90
24444;DHT22;13346;50.984;5.822;2023-02-26T07:46:24;-0.90;99.90
24444;DHT22;13346;50.984;5.822;2023-02-26T07:48:51;-0.80;99.90
24444;DHT22;13346;50.984;5.822;2023-02-26T07:51:18;-0.80;99.90
24444;DHT22;13346;50.984;5.822;2023-02-26T07:53:45;-0.70;99.90
24444;DHT22;13346;50.984;5.822;2023-02-26T07:56:12;-0.70;99.90
24444;DHT22;13346;50.984;5.822;2023-02-26T07:58:40;-0.70;99.90
24444;DHT22;13346;50.984;5.822;2023-02-26T08:01:07;-0.60;99.90
24444;DHT22;13346;50.984;5.822;2023-02-26T08:03:35;-0.50;99.90
24444;DHT22;13346;50.984;5.822;2023-02-26T08:06:03;-0.50;99.90
24444;DHT22;13346;50.984;5.822;2023-02-26T08:08:30;-0.50;99.90
24444;DHT22;13346;50.984;5.822;2023-02-26T08:10:58;-0.50;99.90
24444;DHT22;13346;50.984;5.822;2023-02-26T08:13:26;-0.40;99.90
24444;DHT22;13346;50.984;5.822;2023-02-26T08:15:53;-0.40;99.90
24444;DHT22;13346;50.984;5.822;2023-02-26T08:18:20;-0.30;99.90
24444;DHT22;13346;50.984;5.822;2023-02-26T08:20:51;-0.30;99.90
24444;DHT22;13346;50.984;5.822;2023-02-26T08:23:18;-0.30;99.90
24444;DHT22;13346;50.984;5.822;2023-02-26T08:25:46;-0.20;99.90
24444;DHT22;13346;50.984;5.822;2023-02-26T08:28:13;-0.10;99.90
24444;DHT22;13346;50.984;5.822;2023-02-26T08:30:40;-0.10;99.90
24444;DHT22;13346;50.984;5.822;2023-02-26T08:33:08;-0.10;99.90
24444;DHT22;13346;50.984;5.822;2023-02-26T08:35:35;0.00;99.90
24444;DHT22;13346;50.984;5.822;2023-02-26T08:38:03;0.20;99.90
24444;DHT22;13346;50.984;5.822;2023-02-26T08:40:31;0.30;99.90
24444;DHT22;13346;50.984;5.822;2023-02-26T08:42:58;0.30;99.90
24444;DHT22;13346;50.984;5.822;2023-02-26T08:45:25;0.30;99.90
24444;DHT22;13346;50.984;5.822;2023-02-26T08:47:52;0.30;99.90
24444;DHT22;13346;50.984;5.822;2023-02-26T08:50:20;0.30;99.90
24444;DHT22;13346;50.984;5.822;2023-02-26T08:52:47;0.50;99.90
24444;DHT22;13346;50.984;5.822;2023-02-26T08:55:16;0.50;99.90
24444;DHT22;13346;50.984;5.822;2023-02-26T08:57:43;0.50;99.90
24444;DHT22;13346;50.984;5.822;2023-02-26T09:00:12;0.60;99.90
24444;DHT22;13346;50.984;5.822;2023-02-26T09:02:41;0.70;99.90
24444;DHT22;13346;50.984;5.822;2023-02-26T09:05:08;0.70;99.90
24444;DHT22;13346;50.984;5.822;2023-02-26T09:07:37;0.70;99.90
24444;DHT22;13346;50.984;5.822;2023-02-26T09:10:05;0.80;99.90
24444;DHT22;13346;50.984;5.822;2023-02-26T09:12:34;0.80;99.90
24444;DHT22;13346;50.984;5.822;2023-02-26T09:15:02;1.00;99.90
24444;DHT22;13346;50.984;5.822;2023-02-26T09:17:29;1.00;99.90
24444;DHT22;13346;50.984;5.822;2023-02-26T09:19:57;1.30;99.90
24444;DHT22;13346;50.984;5.822;2023-02-26T09:22:24;1.20;99.90
24444;DHT22;13346;50.984;5.822;2023-02-26T09:24:51;1.30;99.90
24444;DHT22;13346;50.984;5.822;2023-02-26T09:27:19;1.50;99.90
24444;DHT22;13346;50.984;5.822;2023-02-26T09:29:47;1.50;99.90
24444;DHT22;13346;50.984;5.822;2023-02-26T09:32:14;1.40;99.90
24444;DHT22;13346;50.984;5.822;2023-02-26T09:34:42;1.30;99.90
24444;DHT22;13346;50.984;5.822;2023-02-26T09:37:09;1.50;99.90
24444;DHT22;13346;50.984;5.822;2023-02-26T09:39:36;1.40;99.90
24444;DHT22;13346;50.984;5.822;2023-02-26T09:42:10;1.50;99.90
24444;DHT22;13346;50.984;5.822;2023-02-26T09:44:39;1.60;99.90
24444;DHT22;13346;50.984;5.822;2023-02-26T09:47:14;1.50;99.90
24444;DHT22;13346;50.984;5.822;2023-02-26T09:49:49;1.40;99.90
24444;DHT22;13346;50.984;5.822;2023-02-26T09:52:22;1.20;99.90
24444;DHT22;13346;50.984;5.822;2023-02-26T09:54:52;1.40;99.90
24444;DHT22;13346;50.984;5.822;2023-02-26T09:57:25;1.30;99.90
24444;DHT22;13346;50.984;5.822;2023-02-26T09:59:53;1.70;99.90
24444;DHT22;13346;50.984;5.822;2023-02-26T10:02:30;2.20;99.90
24444;DHT22;13346;50.984;5.822;2023-02-26T10:05:17;1.70;99.90
24444;DHT22;13346;50.984;5.822;2023-02-26T10:07:48;1.90;99.90
24444;DHT22;13346;50.984;5.822;2023-02-26T10:10:24;1.40;99.90
24444;DHT22;13346;50.984;5.822;2023-02-26T10:12:55;1.80;99.90
24444;DHT22;13346;50.984;5.822;2023-02-26T10:15:28;1.80;99.90
24444;DHT22;13346;50.984;5.822;2023-02-26T10:18:05;1.90;99.90
24444;DHT22;13346;50.984;5.822;2023-02-26T10:20:38;2.20;99.90
24444;DHT22;13346;50.984;5.822;2023-02-26T10:23:16;2.40;99.90
24444;DHT22;13346;50.984;5.822;2023-02-26T10:25:47;2.30;99.90
24444;DHT22;13346;50.984;5.822;2023-02-26T10:28:33;2.40;99.90
24444;DHT22;13346;50.984;5.822;2023-02-26T10:31:05;2.20;99.90
24444;DHT22;13346;50.984;5.822;2023-02-26T10:33:39;2.40;99.90
24444;DHT22;13346;50.984;5.822;2023-02-26T10:36:18;2.70;99.90
24444;DHT22;13346;50.984;5.822;2023-02-26T10:38:48;3.50;99.90
24444;DHT22;13346;50.984;5.822;2023-02-26T10:41:19;3.50;99.90
24444;DHT22;13346;50.984;5.822;2023-02-26T10:43:51;3.50;99.90
24444;DHT22;13346;50.984;5.822;2023-02-26T10:46:27;3.50;99.90
24444;DHT22;13346;50.984;5.822;2023-02-26T10:49:12;3.90;99.90
24444;DHT22;13346;50.984;5.822;2023-02-26T10:51:43;3.80;99.90
24444;DHT22;13346;50.984;5.822;2023-02-26T10:54:15;3.60;99.90
24444;DHT22;13346;50.984;5.822;2023-02-26T10:56:43;3.50;99.90
24444;DHT22;13346;50.984;5.822;2023-02-26T10:59:10;2.90;99.90
24444;DHT22;13346;50.984;5.822;2023-02-26T11:01:38;3.20;99.90
24444;DHT22;13346;50.984;5.822;2023-02-26T11:04:10;3.80;99.90
24444;DHT22;13346;50.984;5.822;2023-02-26T11:06:41;3.90;99.90
24444;DHT22;13346;50.984;5.822;2023-02-26T11:09:18;4.00;99.90
24444;DHT22;13346;50.984;5.822;2023-02-26T11:11:47;3.70;99.90
24444;DHT22;13346;50.984;5.822;2023-02-26T11:14:15;3.60;99.90
24444;DHT22;13346;50.984;5.822;2023-02-26T11:16:46;4.10;99.90
24444;DHT22;13346;50.984;5.822;2023-02-26T11:19:16;4.10;99.90
24444;DHT22;13346;50.984;5.822;2023-02-26T11:21:46;4.30;99.90
24444;DHT22;13346;50.984;5.822;2023-02-26T11:24:20;5.00;99.90
24444;DHT22;13346;50.984;5.822;2023-02-26T11:26:49;5.30;99.90
24444;DHT22;13346;50.984;5.822;2023-02-26T11:29:19;4.70;99.90
24444;DHT22;13346;50.984;5.822;2023-02-26T11:31:47;3.90;99.90
24444;DHT22;13346;50.984;5.822;2023-02-26T11:34:21;4.00;99.90
24444;DHT22;13346;50.984;5.822;2023-02-26T11:36:50;4.20;99.90
24444;DHT22;13346;50.984;5.822;2023-02-26T11:39:22;4.50;99.90
24444;DHT22;13346;50.984;5.822;2023-02-26T11:41:54;4.60;99.90
24444;DHT22;13346;50.984;5.822;2023-02-26T11:44:33;4.50;99.90
24444;DHT22;13346;50.984;5.822;2023-02-26T11:47:03;4.70;99.90
24444;DHT22;13346;50.984;5.822;2023-02-26T11:49:33;4.70;99.90
24444;DHT22;13346;50.984;5.822;2023-02-26T11:52:13;4.50;99.90
24444;DHT22;13346;50.984;5.822;2023-02-26T11:54:44;4.60;99.90
24444;DHT22;13346;50.984;5.822;2023-02-26T11:57:16;4.50;99.90
24444;DHT22;13346;50.984;5.822;2023-02-26T11:59:48;4.40;99.90
24444;DHT22;13346;50.984;5.822;2023-02-26T12:02:18;4.70;99.90
24444;DHT22;13346;50.984;5.822;2023-02-26T12:04:49;4.40;99.90
24444;DHT22;13346;50.984;5.822;2023-02-26T12:07:19;3.80;99.90
24444;DHT22;13346;50.984;5.822;2023-02-26T12:09:47;4.10;99.90
24444;DHT22;13346;50.984;5.822;2023-02-26T12:12:36;4.50;99.90
24444;DHT22;13346;50.984;5.822;2023-02-26T12:15:21;4.70;99.90
24444;DHT22;13346;50.984;5.822;2023-02-26T12:20:46;3.50;99.90
24444;DHT22;13346;50.984;5.822;2023-02-26T12:23:29;3.30;99.90
24444;DHT22;13346;50.984;5.822;2023-02-26T12:26:13;3.00;99.90
24444;DHT22;13346;50.984;5.822;2023-02-26T12:29:11;3.40;99.90
24444;DHT22;13346;50.984;5.822;2023-02-26T12:32:08;4.10;99.90
24444;DHT22;13346;50.984;5.822;2023-02-26T12:34:50;4.20;99.90
24444;DHT22;13346;50.984;5.822;2023-02-26T12:37:38;4.90;99.90
24444;DHT22;13346;50.984;5.822;2023-02-26T12:40:20;5.20;99.90
24444;DHT22;13346;50.984;5.822;2023-02-26T12:43:00;4.80;99.90
24444;DHT22;13346;50.984;5.822;2023-02-26T12:45:41;4.80;99.90
24444;DHT22;13346;50.984;5.822;2023-02-26T12:51:18;4.50;99.90
24444;DHT22;13346;50.984;5.822;2023-02-26T12:54:10;4.30;99.50
24444;DHT22;13346;50.984;5.822;2023-02-26T12:57:00;4.00;99.90
24444;DHT22;13346;50.984;5.822;2023-02-26T13:03:03;4.20;99.90
24444;DHT22;13346;50.984;5.822;2023-02-26T13:05:47;4.40;89.70
24444;DHT22;13346;50.984;5.822;2023-02-26T13:08:24;4.80;69.50
24444;DHT22;13346;50.984;5.822;2023-02-26T13:11:10;5.20;99.90
24444;DHT22;13346;50.984;5.822;2023-02-26T13:14:06;5.20;56.00
24444;DHT22;13346;50.984;5.822;2023-02-26T13:16:45;4.70;68.10
24444;DHT22;13346;50.984;5.822;2023-02-26T13:19:24;5.10;99.90
24444;DHT22;13346;50.984;5.822;2023-02-26T13:21:57;4.80;73.70
24444;DHT22;13346;50.984;5.822;2023-02-26T13:24:31;4.60;95.20
24444;DHT22;13346;50.984;5.822;2023-02-26T13:27:02;4.00;96.90
24444;DHT22;13346;50.984;5.822;2023-02-26T13:29:34;3.70;99.90
24444;DHT22;13346;50.984;5.822;2023-02-26T13:32:05;4.50;99.90
24444;DHT22;13346;50.984;5.822;2023-02-26T13:34:41;4.50;99.90
24444;DHT22;13346;50.984;5.822;2023-02-26T13:37:23;4.70;88.40
24444;DHT22;13346;50.984;5.822;2023-02-26T13:39:58;4.80;99.90
24444;DHT22;13346;50.984;5.822;2023-02-26T13:42:37;4.80;99.90
24444;DHT22;13346;50.984;5.822;2023-02-26T13:45:24;4.90;97.60
24444;DHT22;13346;50.984;5.822;2023-02-26T13:48:06;4.20;87.90
24444;DHT22;13346;50.984;5.822;2023-02-26T13:50:44;4.20;70.80
24444;DHT22;13346;50.984;5.822;2023-02-26T13:53:51;3.70;55.20
24444;DHT22;13346;50.984;5.822;2023-02-26T13:56:23;4.40;92.40
24444;DHT22;13346;50.984;5.822;2023-02-26T13:59:31;4.70;59.70
24444;DHT22;13346;50.984;5.822;2023-02-26T14:04:50;4.40;49.90
24444;DHT22;13346;50.984;5.822;2023-02-26T14:07:45;4.50;59.10
24444;DHT22;13346;50.984;5.822;2023-02-26T14:10:15;4.50;42.90
24444;DHT22;13346;50.984;5.822;2023-02-26T14:12:43;4.80;39.40
24444;DHT22;13346;50.984;5.822;2023-02-26T14:15:47;4.80;40.20
24444;DHT22;13346;50.984;5.822;2023-02-26T14:18:24;4.90;50.00
24444;DHT22;13346;50.984;5.822;2023-02-26T14:24:00;4.70;94.90
24444;DHT22;13346;50.984;5.822;2023-02-26T14:26:31;4.60;81.10
24444;DHT22;13346;50.984;5.822;2023-02-26T14:29:11;4.70;71.30
24444;DHT22;13346;50.984;5.822;2023-02-26T14:31:59;4.70;65.10
24444;DHT22;13346;50.984;5.822;2023-02-26T14:34:30;4.90;99.90
24444;DHT22;13346;50.984;5.822;2023-02-26T14:37:00;4.90;70.40
24444;DHT22;13346;50.984;5.822;2023-02-26T14:39:31;4.50;65.40
24444;DHT22;13346;50.984;5.822;2023-02-26T14:42:03;4.40;80.20
24444;DHT22;13346;50.984;5.822;2023-02-26T14:44:36;4.60;62.40
24444;DHT22;13346;50.984;5.822;2023-02-26T14:47:07;4.70;55.40
24444;DHT22;13346;50.984;5.822;2023-02-26T14:49:36;4.50;83.30
24444;DHT22;13346;50.984;5.822;2023-02-26T14:52:25;4.60;45.70
24444;DHT22;13346;50.984;5.822;2023-02-26T14:55:12;4.60;58.70
24444;DHT22;13346;50.984;5.822;2023-02-26T14:57:51;4.90;36.80
24444;DHT22;13346;50.984;5.822;2023-02-26T15:00:27;5.00;84.10
24444;DHT22;13346;50.984;5.822;2023-02-26T15:06:17;4.80;56.80
24444;DHT22;13346;50.984;5.822;2023-02-26T15:08:59;4.80;32.80
24444;DHT22;13346;50.984;5.822;2023-02-26T15:14:44;4.80;45.60
24444;DHT22;13346;50.984;5.822;2023-02-26T15:17:29;4.80;29.30
24444;DHT22;13346;50.984;5.822;2023-02-26T15:20:12;4.60;29.20
24444;DHT22;13346;50.984;5.822;2023-02-26T15:22:58;4.50;46.40
24444;DHT22;13346;50.984;5.822;2023-02-26T15:25:30;4.50;48.40
24444;DHT22;13346;50.984;5.822;2023-02-26T15:27:59;4.50;32.80
24444;DHT22;13346;50.984;5.822;2023-02-26T15:30:28;4.60;38.20
24444;DHT22;13346;50.984;5.822;2023-02-26T15:32:57;4.70;57.40
24444;DHT22;13346;50.984;5.822;2023-02-26T15:35:27;4.60;48.10
24444;DHT22;13346;50.984;5.822;2023-02-26T15:37:59;4.50;53.50
24444;DHT22;13346;50.984;5.822;2023-02-26T15:40:29;4.40;56.90
24444;DHT22;13346;50.984;5.822;2023-02-26T15:42:58;4.30;81.90
24444;DHT22;13346;50.984;5.822;2023-02-26T15:45:30;4.20;89.80
24444;DHT22;13346;50.984;5.822;2023-02-26T15:48:02;4.10;66.30
24444;DHT22;13346;50.984;5.822;2023-02-26T15:50:32;4.00;90.60
24444;DHT22;13346;50.984;5.822;2023-02-26T15:53:03;4.00;83.50
24444;DHT22;13346;50.984;5.822;2023-02-26T15:55:34;4.00;83.70
24444;DHT22;13346;50.984;5.822;2023-02-26T15:58:02;3.90;99.90
24444;DHT22;13346;50.984;5.822;2023-02-26T16:00:32;3.90;99.90
24444;DHT22;13346;50.984;5.822;2023-02-26T16:02:59;3.80;99.90
24444;DHT22;13346;50.984;5.822;2023-02-26T16:05:28;3.80;99.90
24444;DHT22;13346;50.984;5.822;2023-02-26T16:07:55;3.80;99.90
24444;DHT22;13346;50.984;5.822;2023-02-26T16:10:31;3.80;99.90
24444;DHT22;13346;50.984;5.822;2023-02-26T16:13:00;3.80;93.70
24444;DHT22;13346;50.984;5.822;2023-02-26T16:15:31;3.70;93.70
24444;DHT22;13346;50.984;5.822;2023-02-26T16:18:00;3.60;95.70
24444;DHT22;13346;50.984;5.822;2023-02-26T16:20:33;3.60;99.90
24444;DHT22;13346;50.984;5.822;2023-02-26T16:23:05;3.60;99.90
24444;DHT22;13346;50.984;5.822;2023-02-26T16:25:37;3.40;99.90
24444;DHT22;13346;50.984;5.822;2023-02-26T16:28:17;3.50;99.90
24444;DHT22;13346;50.984;5.822;2023-02-26T16:30:48;3.50;99.90